sensor_id;sensor_type;location;lat;lon;timestamp;pressure;altitude;pressure_sealevel;temperature;humidity
78488;BME280;67885;49.758;9.582;2023-04-01T00:02:23;97593.19;;;13.44;52.45
78488;BME280;67885;49.758;9.582;2023-04-01T00:04:49;97608.13;;;13.60;52.70
78488;BME280;67885;49.758;9.582;2023-04-01T00:07:16;97601.50;;;13.56;52.67
78488;BME280;67885;49.758;9.582;2023-04-01T00:09:44;97599.22;;;13.53;52.76
78488;BME280;67885;49.758;9.582;2023-04-01T00:12:11;97612.06;;;13.64;53.01
78488;BME280;67885;49.758;9.582;2023-04-01T00:14:37;97611.91;;;13.66;52.44
78488;BME280;67885;49.758;9.582;2023-04-01T00:17:05;97572.06;;;13.43;52.61
78488;BME280;67885;49.758;9.582;2023-04-01T00:19:31;97605.38;;;13.69;51.90
78488;BME280;67885;49.758;9.582;2023-04-01T00:21:58;97553.38;;;13.36;52.00
78488;BME280;67885;49.758;9.582;2023-04-01T00:24:25;97564.06;;;13.43;51.75
78488;BME280;67885;49.758;9.582;2023-04-01T00:26:53;97606.03;;;13.71;53.01
78488;BME280;67885;49.758;9.582;2023-04-01T00:29:20;97558.59;;;13.44;53.02
78488;BME280;67885;49.758;9.582;2023-04-01T00:31:46;97607.31;;;13.75;51.93
78488;BME280;67885;49.758;9.582;2023-04-01T00:34:14;97584.03;;;13.62;52.23
78488;BME280;67885;49.758;9.582;2023-04-01T00:36:41;97593.72;;;13.70;52.08
78488;BME280;67885;49.758;9.582;2023-04-01T00:39:07;97610.63;;;13.77;52.32
78488;BME280;67885;49.758;9.582;2023-04-01T00:41:34;97607.78;;;13.78;51.78
78488;BME280;67885;49.758;9.582;2023-04-01T00:44:20;97606.13;;;13.77;52.07
78488;BME280;67885;49.758;9.582;2023-04-01T00:46:47;97591.06;;;13.70;51.61
78488;BME280;67885;49.758;9.582;2023-04-01T00:49:17;97594.72;;;13.69;51.67
78488;BME280;67885;49.758;9.582;2023-04-01T00:51:47;97598.63;;;13.66;52.22
78488;BME280;67885;49.758;9.582;2023-04-01T00:54:18;97602.56;;;13.70;52.28
78488;BME280;67885;49.758;9.582;2023-04-01T00:56:49;97559.41;;;13.45;51.56
78488;BME280;67885;49.758;9.582;2023-04-01T00:59:25;97602.72;;;13.69;52.45
78488;BME280;67885;49.758;9.582;2023-04-01T01:01:52;97581.97;;;13.49;52.52
78488;BME280;67885;49.758;9.582;2023-04-01T01:04:23;97588.50;;;13.61;51.90
78488;BME280;67885;49.758;9.582;2023-04-01T01:07:01;97579.59;;;13.54;51.99
78488;BME280;67885;49.758;9.582;2023-04-01T01:09:43;97600.69;;;13.56;52.55
78488;BME280;67885;49.758;9.582;2023-04-01T01:12:14;97613.72;;;13.65;52.52
78488;BME280;67885;49.758;9.582;2023-04-01T01:14:54;97610.78;;;13.60;51.72
78488;BME280;67885;49.758;9.582;2023-04-01T01:17:32;97613.00;;;13.57;52.45
78488;BME280;67885;49.758;9.582;2023-04-01T01:20:31;97545.34;;;13.21;52.19
78488;BME280;67885;49.758;9.582;2023-04-01T01:23:33;97597.03;;;13.57;51.95
78488;BME280;67885;49.758;9.582;2023-04-01T01:29:30;97599.69;;;13.57;51.61
78488;BME280;67885;49.758;9.582;2023-04-01T01:32:12;97595.38;;;13.56;51.83
78488;BME280;67885;49.758;9.582;2023-04-01T01:34:52;97592.16;;;13.60;50.98
78488;BME280;67885;49.758;9.582;2023-04-01T01:37:27;97593.28;;;13.51;51.91
78488;BME280;67885;49.758;9.582;2023-04-01T01:40:00;97595.19;;;13.57;51.86
78488;BME280;67885;49.758;9.582;2023-04-01T01:42:31;97571.56;;;13.24;51.50
78488;BME280;67885;49.758;9.582;2023-04-01T01:45:04;97589.78;;;13.51;52.19
78488;BME280;67885;49.758;9.582;2023-04-01T01:47:33;97592.34;;;13.59;52.06
78488;BME280;67885;49.758;9.582;2023-04-01T01:50:02;97578.31;;;13.50;51.38
78488;BME280;67885;49.758;9.582;2023-04-01T01:52:31;97588.69;;;13.60;52.40
78488;BME280;67885;49.758;9.582;2023-04-01T01:54:58;97590.34;;;13.61;51.66
78488;BME280;67885;49.758;9.582;2023-04-01T01:57:28;97625.13;;;13.59;51.98
78488;BME280;67885;49.758;9.582;2023-04-01T02:00:01;97587.69;;;13.61;51.64
78488;BME280;67885;49.758;9.582;2023-04-01T02:02:31;97584.19;;;13.60;52.00
78488;BME280;67885;49.758;9.582;2023-04-01T02:04:58;97578.03;;;13.45;51.91
78488;BME280;67885;49.758;9.582;2023-04-01T02:07:31;97588.78;;;13.52;52.25
78488;BME280;67885;49.758;9.582;2023-04-01T02:09:59;97585.13;;;13.53;51.79
78488;BME280;67885;49.758;9.582;2023-04-01T02:12:28;97584.09;;;13.54;51.75
78488;BME280;67885;49.758;9.582;2023-04-01T02:15:00;97585.56;;;13.56;51.52
78488;BME280;67885;49.758;9.582;2023-04-01T02:17:33;97567.03;;;13.48;52.02
78488;BME280;67885;49.758;9.582;2023-04-01T02:20:03;97581.91;;;13.57;51.25
78488;BME280;67885;49.758;9.582;2023-04-01T02:22:37;97584.75;;;13.56;51.73
78488;BME280;67885;49.758;9.582;2023-04-01T02:25:10;97564.06;;;13.43;52.38
78488;BME280;67885;49.758;9.582;2023-04-01T02:27:38;97589.69;;;13.59;51.89
78488;BME280;67885;49.758;9.582;2023-04-01T02:30:06;97581.59;;;13.52;51.18
78488;BME280;67885;49.758;9.582;2023-04-01T02:32:37;97580.25;;;13.56;51.71
78488;BME280;67885;49.758;9.582;2023-04-01T02:35:07;97598.50;;;13.59;51.25
78488;BME280;67885;49.758;9.582;2023-04-01T02:37:37;97553.19;;;13.38;51.81
78488;BME280;67885;49.758;9.582;2023-04-01T02:40:06;97584.56;;;13.57;51.03
78488;BME280;67885;49.758;9.582;2023-04-01T02:42:33;97580.91;;;13.58;51.39
78488;BME280;67885;49.758;9.582;2023-04-01T02:45:00;97579.59;;;13.54;51.36
78488;BME280;67885;49.758;9.582;2023-04-01T02:47:27;97579.41;;;13.56;51.64
78488;BME280;67885;49.758;9.582;2023-04-01T02:49:54;97578.59;;;13.55;51.43
78488;BME280;67885;49.758;9.582;2023-04-01T02:52:23;97579.78;;;13.53;51.43
78488;BME280;67885;49.758;9.582;2023-04-01T02:54:53;97587.56;;;13.39;51.15
78488;BME280;67885;49.758;9.582;2023-04-01T02:57:20;97579.13;;;13.51;50.99
78488;BME280;67885;49.758;9.582;2023-04-01T02:59:46;97550.09;;;13.26;50.87
78488;BME280;67885;49.758;9.582;2023-04-01T03:02:14;97591.81;;;13.48;51.04
78488;BME280;67885;49.758;9.582;2023-04-01T03:04:40;97577.38;;;13.43;51.72
78488;BME280;67885;49.758;9.582;2023-04-01T03:07:07;97577.22;;;13.44;51.65
78488;BME280;67885;49.758;9.582;2023-04-01T03:09:35;97583.28;;;13.53;52.00
78488;BME280;67885;49.758;9.582;2023-04-01T03:12:03;97581.59;;;13.52;51.94
78488;BME280;67885;49.758;9.582;2023-04-01T03:14:30;97580.72;;;13.60;51.18
78488;BME280;67885;49.758;9.582;2023-04-01T03:16:56;97576.66;;;13.49;50.75
78488;BME280;67885;49.758;9.582;2023-04-01T03:19:23;97559.91;;;13.25;51.34
78488;BME280;67885;49.758;9.582;2023-04-01T03:21:49;97569.88;;;13.46;51.25
78488;BME280;67885;49.758;9.582;2023-04-01T03:24:16;97591.16;;;13.46;51.76
78488;BME280;67885;49.758;9.582;2023-04-01T03:26:43;97592.00;;;13.47;51.26
78488;BME280;67885;49.758;9.582;2023-04-01T03:29:11;97583.91;;;13.40;51.17
78488;BME280;67885;49.758;9.582;2023-04-01T03:31:37;97570.47;;;13.33;51.65
78488;BME280;67885;49.758;9.582;2023-04-01T03:34:04;97596.56;;;13.53;51.92
78488;BME280;67885;49.758;9.582;2023-04-01T03:36:30;97596.56;;;13.53;50.77
78488;BME280;67885;49.758;9.582;2023-04-01T03:38:57;97582.06;;;13.41;51.46
78488;BME280;67885;49.758;9.582;2023-04-01T03:41:24;97593.44;;;13.49;51.59
78488;BME280;67885;49.758;9.582;2023-04-01T03:43:50;97595.47;;;13.47;51.37
78488;BME280;67885;49.758;9.582;2023-04-01T03:46:19;97583.16;;;13.46;52.47
78488;BME280;67885;49.758;9.582;2023-04-01T03:48:46;97592.81;;;13.47;52.07
78488;BME280;67885;49.758;9.582;2023-04-01T03:51:13;97597.31;;;13.47;51.90
78488;BME280;67885;49.758;9.582;2023-04-01T03:53:39;97582.69;;;13.43;51.89
78488;BME280;67885;49.758;9.582;2023-04-01T03:56:07;97596.66;;;13.45;51.99
78488;BME280;67885;49.758;9.582;2023-04-01T03:58:35;97590.97;;;13.48;51.47
78488;BME280;67885;49.758;9.582;2023-04-01T04:01:02;97587.66;;;13.46;51.17
78488;BME280;67885;49.758;9.582;2023-04-01T04:03:30;97574.09;;;13.41;51.49
78488;BME280;67885;49.758;9.582;2023-04-01T04:05:57;97579.22;;;13.42;50.83
78488;BME280;67885;49.758;9.582;2023-04-01T04:08:23;97584.81;;;13.47;50.67
78488;BME280;67885;49.758;9.582;2023-04-01T04:10:54;97595.47;;;13.47;51.10
78488;BME280;67885;49.758;9.582;2023-04-01T04:13:21;97589.97;;;13.49;51.03
78488;BME280;67885;49.758;9.582;2023-04-01T04:15:48;97590.63;;;13.51;50.89
78488;BME280;67885;49.758;9.582;2023-04-01T04:18:14;97595.75;;;13.53;50.82
78488;BME280;67885;49.758;9.582;2023-04-01T04:20:45;97582.97;;;13.48;51.36
78488;BME280;67885;49.758;9.582;2023-04-01T04:23:13;97600.03;;;13.54;50.91
78488;BME280;67885;49.758;9.582;2023-04-01T04:25:40;97584.16;;;13.45;50.94
78488;BME280;67885;49.758;9.582;2023-04-01T04:28:06;97597.94;;;13.49;51.24
78488;BME280;67885;49.758;9.582;2023-04-01T04:30:33;97587.66;;;13.46;50.82
78488;BME280;67885;49.758;9.582;2023-04-01T04:33:00;97597.47;;;13.45;50.82
78488;BME280;67885;49.758;9.582;2023-04-01T04:35:27;97590.34;;;13.46;51.57
78488;BME280;67885;49.758;9.582;2023-04-01T04:37:54;97591.81;;;13.48;50.53
78488;BME280;67885;49.758;9.582;2023-04-01T04:40:21;97590.63;;;13.51;50.94
78488;BME280;67885;49.758;9.582;2023-04-01T04:42:48;97595.94;;;13.51;50.53
78488;BME280;67885;49.758;9.582;2023-04-01T04:45:14;97592.25;;;13.52;51.03
78488;BME280;67885;49.758;9.582;2023-04-01T04:47:41;97558.13;;;13.41;51.43
78488;BME280;67885;49.758;9.582;2023-04-01T04:50:08;97595.38;;;13.56;51.98
78488;BME280;67885;49.758;9.582;2023-04-01T04:52:35;97581.28;;;13.55;51.54
78488;BME280;67885;49.758;9.582;2023-04-01T04:55:04;97584.09;;;13.54;52.15
78488;BME280;67885;49.758;9.582;2023-04-01T04:57:31;97581.41;;;13.54;51.92
78488;BME280;67885;49.758;9.582;2023-04-01T04:59:57;97585.00;;;13.46;51.79
78488;BME280;67885;49.758;9.582;2023-04-01T05:02:24;97577.44;;;13.35;52.57
78488;BME280;67885;49.758;9.582;2023-04-01T05:04:50;97587.81;;;13.29;52.54
78488;BME280;67885;49.758;9.582;2023-04-01T05:07:17;97575.41;;;13.22;52.89
78488;BME280;67885;49.758;9.582;2023-04-01T05:09:43;97578.88;;;13.22;52.39
78488;BME280;67885;49.758;9.582;2023-04-01T05:12:13;97588.88;;;13.20;53.03
78488;BME280;67885;49.758;9.582;2023-04-01T05:14:40;97580.06;;;13.20;52.88
78488;BME280;67885;49.758;9.582;2023-04-01T05:17:09;97574.59;;;13.21;52.72
78488;BME280;67885;49.758;9.582;2023-04-01T05:19:36;97573.56;;;13.22;53.07
78488;BME280;67885;49.758;9.582;2023-04-01T05:22:02;97584.56;;;13.19;52.99
78488;BME280;67885;49.758;9.582;2023-04-01T05:24:29;97575.09;;;13.16;52.46
78488;BME280;67885;49.758;9.582;2023-04-01T05:26:56;97580.59;;;13.15;52.63
78488;BME280;67885;49.758;9.582;2023-04-01T05:29:25;97574.63;;;13.13;52.50
78488;BME280;67885;49.758;9.582;2023-04-01T05:31:52;97544.25;;;12.92;52.91
78488;BME280;67885;49.758;9.582;2023-04-01T05:34:19;97584.06;;;13.15;52.54
78488;BME280;67885;49.758;9.582;2023-04-01T05:36:45;97579.59;;;13.16;53.01
78488;BME280;67885;49.758;9.582;2023-04-01T05:39:12;97558.00;;;12.96;52.99
78488;BME280;67885;49.758;9.582;2023-04-01T05:41:38;97587.59;;;13.16;53.80
78488;BME280;67885;49.758;9.582;2023-04-01T05:44:05;97561.78;;;13.02;53.24
78488;BME280;67885;49.758;9.582;2023-04-01T05:46:33;97588.41;;;13.16;53.63
78488;BME280;67885;49.758;9.582;2023-04-01T05:49:00;97584.56;;;13.19;53.59
78488;BME280;67885;49.758;9.582;2023-04-01T05:51:26;97539.28;;;12.89;53.12
78488;BME280;67885;49.758;9.582;2023-04-01T05:53:53;97585.00;;;13.08;53.17
78488;BME280;67885;49.758;9.582;2023-04-01T05:56:20;97581.31;;;13.09;53.98
78488;BME280;67885;49.758;9.582;2023-04-01T05:58:50;97578.50;;;13.10;53.40
78488;BME280;67885;49.758;9.582;2023-04-01T06:01:17;97578.94;;;13.14;54.08
78488;BME280;67885;49.758;9.582;2023-04-01T06:03:46;97575.00;;;13.10;53.58
78488;BME280;67885;49.758;9.582;2023-04-01T06:06:15;97566.72;;;13.05;54.06
78488;BME280;67885;49.758;9.582;2023-04-01T06:08:42;97587.88;;;12.98;53.96
78488;BME280;67885;49.758;9.582;2023-04-01T06:11:19;97585.25;;;13.13;54.56
78488;BME280;67885;49.758;9.582;2023-04-01T06:16:56;97577.03;;;13.08;54.59
78488;BME280;67885;49.758;9.582;2023-04-01T06:19:36;97585.91;;;13.15;53.31
78488;BME280;67885;49.758;9.582;2023-04-01T06:22:22;97535.16;;;12.87;54.01
78488;BME280;67885;49.758;9.582;2023-04-01T06:25:07;97591.53;;;13.20;53.71
78488;BME280;67885;49.758;9.582;2023-04-01T06:27:50;97604.16;;;13.18;54.11
78488;BME280;67885;49.758;9.582;2023-04-01T06:30:38;97597.84;;;13.19;54.66
78488;BME280;67885;49.758;9.582;2023-04-01T06:33:25;97591.34;;;13.22;55.22
78488;BME280;67885;49.758;9.582;2023-04-01T06:36:18;97588.97;;;13.27;54.27
78488;BME280;67885;49.758;9.582;2023-04-01T06:39:13;97547.13;;;13.06;54.52
78488;BME280;67885;49.758;9.582;2023-04-01T06:42:04;97574.59;;;13.21;53.62
78488;BME280;67885;49.758;9.582;2023-04-01T06:44:41;97549.41;;;13.09;54.03
78488;BME280;67885;49.758;9.582;2023-04-01T06:47:27;97552.91;;;13.09;53.94
78488;BME280;67885;49.758;9.582;2023-04-01T06:50:07;97589.44;;;13.30;54.84
78488;BME280;67885;49.758;9.582;2023-04-01T06:52:50;97587.44;;;13.32;54.32
78488;BME280;67885;49.758;9.582;2023-04-01T06:55:32;97582.75;;;13.35;53.58
78488;BME280;67885;49.758;9.582;2023-04-01T06:58:05;97586.31;;;13.27;54.22
78488;BME280;67885;49.758;9.582;2023-04-01T07:00:40;97587.31;;;13.26;54.28
78488;BME280;67885;49.758;9.582;2023-04-01T07:03:19;97579.97;;;13.28;54.32
78488;BME280;67885;49.758;9.582;2023-04-01T07:05:48;97555.03;;;13.14;54.00
78488;BME280;67885;49.758;9.582;2023-04-01T07:08:22;97570.81;;;13.30;54.62
78488;BME280;67885;49.758;9.582;2023-04-01T07:10:54;97577.97;;;13.30;54.85
78488;BME280;67885;49.758;9.582;2023-04-01T07:13:28;97582.94;;;13.33;54.46
78488;BME280;67885;49.758;9.582;2023-04-01T07:16:05;97575.59;;;13.35;54.78
78488;BME280;67885;49.758;9.582;2023-04-01T07:18:39;97573.28;;;13.32;54.92
78488;BME280;67885;49.758;9.582;2023-04-01T07:21:20;97575.59;;;13.35;54.99
78488;BME280;67885;49.758;9.582;2023-04-01T07:23:51;97593.06;;;13.38;54.50
78488;BME280;67885;49.758;9.582;2023-04-01T07:26:20;97593.88;;;13.38;54.56
78488;BME280;67885;49.758;9.582;2023-04-01T07:28:48;97587.09;;;13.36;55.02
78488;BME280;67885;49.758;9.582;2023-04-01T07:31:32;97577.97;;;13.30;54.78
78488;BME280;67885;49.758;9.582;2023-04-01T07:34:09;97498.75;;;12.72;55.29
78488;BME280;67885;49.758;9.582;2023-04-01T07:36:47;97584.44;;;13.36;55.14
78488;BME280;67885;49.758;9.582;2023-04-01T07:39:30;97588.91;;;13.35;55.63
78488;BME280;67885;49.758;9.582;2023-04-01T07:42:06;97588.44;;;13.31;55.74
78488;BME280;67885;49.758;9.582;2023-04-01T07:44:46;97533.00;;;12.90;55.46
78488;BME280;67885;49.758;9.582;2023-04-01T07:47:30;97500.78;;;12.70;55.25
78488;BME280;67885;49.758;9.582;2023-04-01T07:50:13;97597.03;;;13.19;55.93
78488;BME280;67885;49.758;9.582;2023-04-01T07:52:52;97504.91;;;12.73;56.55
78488;BME280;67885;49.758;9.582;2023-04-01T07:55:29;97580.34;;;13.25;56.16
78488;BME280;67885;49.758;9.582;2023-04-01T07:58:08;97614.34;;;13.38;57.01
78488;BME280;67885;49.758;9.582;2023-04-01T08:00:47;97605.53;;;13.37;55.86
78488;BME280;67885;49.758;9.582;2023-04-01T08:03:30;97611.31;;;13.41;56.98
78488;BME280;67885;49.758;9.582;2023-04-01T08:06:02;97589.09;;;13.33;56.49
78488;BME280;67885;49.758;9.582;2023-04-01T08:08:44;97602.38;;;13.33;57.16
78488;BME280;67885;49.758;9.582;2023-04-01T08:11:31;97526.78;;;12.75;56.12
78488;BME280;67885;49.758;9.582;2023-04-01T08:14:11;97612.31;;;13.40;57.00
78488;BME280;67885;49.758;9.582;2023-04-01T08:16:50;97613.16;;;13.32;55.46
78488;BME280;67885;49.758;9.582;2023-04-01T08:19:31;97634.28;;;13.33;56.18
78488;BME280;67885;49.758;9.582;2023-04-01T08:22:08;97613.50;;;13.14;56.65
78488;BME280;67885;49.758;9.582;2023-04-01T08:24:41;97623.66;;;13.33;57.36
78488;BME280;67885;49.758;9.582;2023-04-01T08:27:17;97613.53;;;13.29;56.97
78488;BME280;67885;49.758;9.582;2023-04-01T08:29:53;97619.84;;;13.28;57.08
78488;BME280;67885;49.758;9.582;2023-04-01T08:32:28;97617.03;;;13.29;57.51
78488;BME280;67885;49.758;9.582;2023-04-01T08:35:07;97616.19;;;13.29;57.42
78488;BME280;67885;49.758;9.582;2023-04-01T08:37:39;97614.72;;;13.26;57.13
78488;BME280;67885;49.758;9.582;2023-04-01T08:40:39;97591.50;;;13.05;57.42
78488;BME280;67885;49.758;9.582;2023-04-01T08:43:25;97635.91;;;13.35;57.27
78488;BME280;67885;49.758;9.582;2023-04-01T08:46:16;97582.34;;;13.08;56.82
78488;BME280;67885;49.758;9.582;2023-04-01T08:49:09;97619.00;;;13.36;57.45
78488;BME280;67885;49.758;9.582;2023-04-01T08:51:58;97615.34;;;13.37;58.00
78488;BME280;67885;49.758;9.582;2023-04-01T08:54:45;97601.88;;;13.15;57.12
78488;BME280;67885;49.758;9.582;2023-04-01T08:57:26;97617.69;;;13.31;58.88
78488;BME280;67885;49.758;9.582;2023-04-01T09:00:15;97613.34;;;13.30;58.04
78488;BME280;67885;49.758;9.582;2023-04-01T09:03:19;97602.09;;;13.28;57.46
78488;BME280;67885;49.758;9.582;2023-04-01T09:06:27;97616.16;;;13.37;57.58
78488;BME280;67885;49.758;9.582;2023-04-01T09:09:13;97619.78;;;13.44;58.46
78488;BME280;67885;49.758;9.582;2023-04-01T09:12:02;97609.75;;;13.46;59.15
78488;BME280;67885;49.758;9.582;2023-04-01T09:14:48;97583.00;;;13.25;56.57
78488;BME280;67885;49.758;9.582;2023-04-01T09:17:48;97623.25;;;13.45;58.15
78488;BME280;67885;49.758;9.582;2023-04-01T09:20:39;97628.00;;;13.49;58.48
78488;BME280;67885;49.758;9.582;2023-04-01T09:23:29;97625.81;;;13.53;59.51
78488;BME280;67885;49.758;9.582;2023-04-01T09:26:33;97629.41;;;13.60;57.43
78488;BME280;67885;49.758;9.582;2023-04-01T09:29:16;97626.63;;;13.54;58.19
78488;BME280;67885;49.758;9.582;2023-04-01T09:32:01;97629.78;;;13.57;57.73
78488;BME280;67885;49.758;9.582;2023-04-01T09:34:53;97638.41;;;13.59;58.26
78488;BME280;67885;49.758;9.582;2023-04-01T09:37:34;97631.50;;;13.50;57.43
78488;BME280;67885;49.758;9.582;2023-04-01T09:40:15;97632.63;;;13.56;59.30
78488;BME280;67885;49.758;9.582;2023-04-01T09:42:45;97637.13;;;13.55;57.71
78488;BME280;67885;49.758;9.582;2023-04-01T09:45:34;97614.91;;;13.48;58.29
78488;BME280;67885;49.758;9.582;2023-04-01T09:48:15;97592.22;;;13.37;58.21
78488;BME280;67885;49.758;9.582;2023-04-01T09:50:57;97626.41;;;13.63;57.91
78488;BME280;67885;49.758;9.582;2023-04-01T09:53:47;97629.31;;;13.69;57.81
78488;BME280;67885;49.758;9.582;2023-04-01T09:59:31;97639.16;;;13.83;58.43
78488;BME280;67885;49.758;9.582;2023-04-01T10:05:57;97637.88;;;13.94;58.91
78488;BME280;67885;49.758;9.582;2023-04-01T10:08:49;97641.44;;;14.01;58.41
78488;BME280;67885;49.758;9.582;2023-04-01T10:11:50;97626.75;;;13.90;58.25
78488;BME280;67885;49.758;9.582;2023-04-01T10:14:41;97650.91;;;14.04;57.25
78488;BME280;67885;49.758;9.582;2023-04-01T10:17:45;97646.44;;;14.04;57.04
78488;BME280;67885;49.758;9.582;2023-04-01T10:20:39;97624.75;;;13.92;57.13
78488;BME280;67885;49.758;9.582;2023-04-01T10:23:41;97627.91;;;13.96;57.81
78488;BME280;67885;49.758;9.582;2023-04-01T10:26:38;97646.97;;;14.14;58.00
78488;BME280;67885;49.758;9.582;2023-04-01T10:29:40;97634.31;;;14.16;58.18
78488;BME280;67885;49.758;9.582;2023-04-01T10:35:35;97648.22;;;14.33;58.35
78488;BME280;67885;49.758;9.582;2023-04-01T10:38:33;97641.44;;;14.31;56.83
78488;BME280;67885;49.758;9.582;2023-04-01T10:47:48;97652.72;;;14.48;57.68
78488;BME280;67885;49.758;9.582;2023-04-01T10:50:42;97631.25;;;14.34;58.03
78488;BME280;67885;49.758;9.582;2023-04-01T10:53:39;97645.75;;;14.47;57.64
78488;BME280;67885;49.758;9.582;2023-04-01T11:02:58;97658.88;;;14.48;59.13
78488;BME280;67885;49.758;9.582;2023-04-01T11:05:58;97649.41;;;14.46;57.91
78488;BME280;67885;49.758;9.582;2023-04-01T11:09:03;97620.81;;;14.18;58.03
78488;BME280;67885;49.758;9.582;2023-04-01T11:18:01;97644.19;;;14.38;58.34
78488;BME280;67885;49.758;9.582;2023-04-01T11:21:02;97653.66;;;14.40;58.65
78488;BME280;67885;49.758;9.582;2023-04-01T11:23:50;97651.63;;;14.42;59.43
78488;BME280;67885;49.758;9.582;2023-04-01T11:26:32;97634.72;;;14.35;59.51
78488;BME280;67885;49.758;9.582;2023-04-01T11:29:37;97654.38;;;14.49;58.90
78488;BME280;67885;49.758;9.582;2023-04-01T11:32:24;97655.28;;;14.56;59.36
78488;BME280;67885;49.758;9.582;2023-04-01T11:35:22;97643.72;;;14.49;59.57
78488;BME280;67885;49.758;9.582;2023-04-01T11:38:01;97660.88;;;14.61;59.45
78488;BME280;67885;49.758;9.582;2023-04-01T11:40:40;97660.72;;;14.63;59.89
78488;BME280;67885;49.758;9.582;2023-04-01T11:43:19;97634.34;;;14.53;59.03
78488;BME280;67885;49.758;9.582;2023-04-01T11:45:57;97648.38;;;14.62;59.23
78488;BME280;67885;49.758;9.582;2023-04-01T11:48:40;97661.41;;;14.72;59.46
78488;BME280;67885;49.758;9.582;2023-04-01T11:51:35;97662.88;;;14.74;58.95
78488;BME280;67885;49.758;9.582;2023-04-01T11:54:19;97648.22;;;14.63;58.69
78488;BME280;67885;49.758;9.582;2023-04-01T11:57:05;97653.44;;;14.72;59.44
78488;BME280;67885;49.758;9.582;2023-04-01T11:59:57;97641.88;;;14.64;59.90
78488;BME280;67885;49.758;9.582;2023-04-01T12:02:40;97673.81;;;14.79;59.01
78488;BME280;67885;49.758;9.582;2023-04-01T12:05:29;97673.63;;;14.81;58.83
78488;BME280;67885;49.758;9.582;2023-04-01T12:08:15;97670.97;;;14.81;59.03
78488;BME280;67885;49.758;9.582;2023-04-01T12:10:54;97671.47;;;14.70;58.79
78488;BME280;67885;49.758;9.582;2023-04-01T12:13:36;97678.25;;;14.72;59.22
78488;BME280;67885;49.758;9.582;2023-04-01T12:16:31;97682.59;;;14.73;59.71
78488;BME280;67885;49.758;9.582;2023-04-01T12:19:13;97686.69;;;14.76;59.75
78488;BME280;67885;49.758;9.582;2023-04-01T12:21:52;97658.72;;;14.65;59.23
78488;BME280;67885;49.758;9.582;2023-04-01T12:24:45;97688.34;;;14.77;59.12
78488;BME280;67885;49.758;9.582;2023-04-01T12:27:36;97695.72;;;14.75;59.43
78488;BME280;67885;49.758;9.582;2023-04-01T12:30:35;97694.53;;;14.77;59.47
78488;BME280;67885;49.758;9.582;2023-04-01T12:33:24;97690.38;;;14.75;59.55
78488;BME280;67885;49.758;9.582;2023-04-01T12:36:10;97667.22;;;14.60;60.02
78488;BME280;67885;49.758;9.582;2023-04-01T12:38:51;97685.59;;;14.55;59.53
78488;BME280;67885;49.758;9.582;2023-04-01T12:41:37;97697.91;;;14.71;59.39
78488;BME280;67885;49.758;9.582;2023-04-01T12:44:20;97708.31;;;14.66;58.54
78488;BME280;67885;49.758;9.582;2023-04-01T12:47:18;97691.94;;;14.54;59.20
78488;BME280;67885;49.758;9.582;2023-04-01T12:49:59;97691.56;;;14.57;60.32
78488;BME280;67885;49.758;9.582;2023-04-01T12:52:44;97695.63;;;14.68;60.47
78488;BME280;67885;49.758;9.582;2023-04-01T12:55:35;97696.44;;;14.69;60.33
78488;BME280;67885;49.758;9.582;2023-04-01T12:58:30;97692.66;;;14.78;59.95
78488;BME280;67885;49.758;9.582;2023-04-01T13:01:23;97573.38;;;14.07;59.57
78488;BME280;67885;49.758;9.582;2023-04-01T13:04:35;97691.94;;;14.84;60.13
78488;BME280;67885;49.758;9.582;2023-04-01T13:07:26;97696.75;;;14.95;59.40
78488;BME280;67885;49.758;9.582;2023-04-01T13:10:09;97665.19;;;14.77;59.45
78488;BME280;67885;49.758;9.582;2023-04-01T13:12:57;97697.56;;;14.96;60.16
78488;BME280;67885;49.758;9.582;2023-04-01T13:15:36;97698.31;;;15.05;59.26
78488;BME280;67885;49.758;9.582;2023-04-01T13:18:15;97669.34;;;14.80;58.59
78488;BME280;67885;49.758;9.582;2023-04-01T13:20:54;97688.50;;;14.90;58.79
78488;BME280;67885;49.758;9.582;2023-04-01T13:23:43;97702.56;;;14.99;58.71
78488;BME280;67885;49.758;9.582;2023-04-01T13:26:18;97690.97;;;14.92;59.66
78488;BME280;67885;49.758;9.582;2023-04-01T13:28:56;97657.22;;;14.62;59.44
78488;BME280;67885;49.758;9.582;2023-04-01T13:31:43;97706.31;;;15.05;59.83
78488;BME280;67885;49.758;9.582;2023-04-01T13:34:27;97704.44;;;15.05;59.30
78488;BME280;67885;49.758;9.582;2023-04-01T13:37:15;97679.69;;;14.90;59.05
78488;BME280;67885;49.758;9.582;2023-04-01T13:40:02;97707.69;;;15.00;59.25
78488;BME280;67885;49.758;9.582;2023-04-01T13:42:45;97691.16;;;14.90;59.78
78488;BME280;67885;49.758;9.582;2023-04-01T13:45:18;97708.69;;;14.99;59.44
78488;BME280;67885;49.758;9.582;2023-04-01T13:48:18;97714.22;;;14.98;59.17
78488;BME280;67885;49.758;9.582;2023-04-01T13:51:11;97710.72;;;14.97;58.77
78488;BME280;67885;49.758;9.582;2023-04-01T13:54:02;97717.63;;;14.92;59.51
78488;BME280;67885;49.758;9.582;2023-04-01T13:56:43;97700.00;;;14.76;59.40
78488;BME280;67885;49.758;9.582;2023-04-01T13:59:46;97677.31;;;14.50;58.65
78488;BME280;67885;49.758;9.582;2023-04-01T14:02:47;97728.03;;;14.72;60.35
78488;BME280;67885;49.758;9.582;2023-04-01T14:05:50;97722.00;;;14.63;59.44
78488;BME280;67885;49.758;9.582;2023-04-01T14:08:33;97726.13;;;14.65;59.83
78488;BME280;67885;49.758;9.582;2023-04-01T14:11:14;97731.28;;;14.67;59.87
78488;BME280;67885;49.758;9.582;2023-04-01T14:13:53;97722.00;;;14.63;59.42
78488;BME280;67885;49.758;9.582;2023-04-01T14:16:50;97694.25;;;14.42;60.07
78488;BME280;67885;49.758;9.582;2023-04-01T14:19:41;97726.59;;;14.69;60.71
78488;BME280;67885;49.758;9.582;2023-04-01T14:22:23;97742.50;;;14.77;60.82
78488;BME280;67885;49.758;9.582;2023-04-01T14:27:56;97751.28;;;14.78;60.88
78488;BME280;67885;49.758;9.582;2023-04-01T14:30:39;97718.13;;;14.80;60.04
78488;BME280;67885;49.758;9.582;2023-04-01T14:33:21;97732.72;;;14.84;59.44
78488;BME280;67885;49.758;9.582;2023-04-01T14:36:02;97751.47;;;14.91;59.69